createdAt,value
2019-01-31T00:01:37.872Z,77.18
2019-01-31T00:05:00.185Z,77.13
2019-01-31T00:08:21.719Z,77.00
2019-01-31T00:11:31.663Z,76.91
2019-01-31T00:14:42.305Z,77.49
2019-01-31T00:17:57.243Z,77.71
2019-01-31T00:21:26.153Z,77.05
2019-01-31T00:25:01.537Z,77.77
2019-01-31T00:28:29.692Z,78.15
2019-01-31T00:31:55.297Z,79.17
2019-01-31T00:34:53.929Z,78.87
2019-01-31T00:38:30.895Z,79.56
2019-01-31T00:41:53.339Z,79.28
2019-01-31T00:45:04.555Z,78.76
2019-01-31T00:48:36.917Z,78.00
2019-01-31T00:51:50.877Z,78.14
2019-01-31T00:55:29.822Z,78.44
2019-01-31T00:58:39.455Z,78.46
2019-01-31T01:01:46.919Z,78.89
2019-01-31T01:05:07.235Z,79.07
2019-01-31T01:08:18.342Z,79.02
2019-01-31T01:11:27.922Z,78.69
2019-01-31T01:14:43.694Z,78.72
2019-01-31T01:17:51.451Z,79.08
2019-01-31T01:21:03.349Z,79.01
2019-01-31T01:24:24.418Z,78.88
2019-01-31T01:27:18.872Z,79.26
2019-01-31T01:30:28.117Z,79.36
2019-01-31T01:37:15.450Z,78.90
2019-01-31T01:40:51.763Z,78.79
2019-01-31T01:44:03.269Z,78.44
2019-01-31T01:46:57.704Z,79.15
2019-01-31T01:49:47.049Z,79.29
2019-01-31T01:53:14.354Z,79.16
2019-01-31T01:56:43.176Z,78.46
2019-01-31T02:00:03.032Z,78.01
2019-01-31T02:03:39.373Z,78.76
2019-01-31T02:07:04.296Z,79.03
2019-01-31T02:10:47.968Z,79.34
2019-01-31T02:14:21.582Z,79.34
2019-01-31T02:17:17.804Z,79.46
2019-01-31T02:20:51.626Z,79.46
2019-01-31T02:24:08.804Z,79.48
2019-01-31T02:27:43.125Z,79.41
2019-01-31T02:30:38.461Z,79.14
2019-01-31T02:33:41.504Z,79.94
2019-01-31T02:36:56.197Z,79.90
2019-01-31T02:40:13.041Z,80.08
2019-01-31T02:44:12.102Z,79.66
2019-01-31T02:47:52.185Z,79.34
2019-01-31T02:51:40.736Z,79.79
2019-01-31T02:54:37.781Z,79.31
2019-01-31T02:58:00.194Z,78.02
2019-01-31T03:01:18.550Z,77.93
2019-01-31T03:04:30.565Z,77.90
2019-01-31T03:07:58.399Z,78.24
2019-01-31T03:11:24.535Z,78.52
2019-01-31T03:14:25.975Z,78.65
2019-01-31T03:17:52.752Z,78.71
2019-01-31T03:21:26.837Z,78.85
2019-01-31T03:24:26.447Z,79.07
2019-01-31T03:27:51.368Z,78.82
2019-01-31T03:31:13.850Z,79.03
2019-01-31T03:34:21.429Z,78.80
2019-01-31T03:37:40.910Z,79.06
2019-01-31T03:40:51.674Z,79.62
2019-01-31T03:43:55.332Z,79.52
2019-01-31T03:47:24.179Z,79.76
2019-01-31T03:50:22.120Z,79.38
2019-01-31T03:53:54.210Z,79.07
2019-01-31T03:57:09.084Z,77.62
2019-01-31T04:00:40.929Z,77.53
2019-01-31T04:03:35.826Z,78.09
2019-01-31T04:06:20.293Z,78.18
2019-01-31T04:08:52.271Z,78.12
2019-01-31T04:11:24.525Z,78.45
2019-01-31T04:13:56.357Z,79.00
2019-01-31T04:16:28.353Z,80.14
2019-01-31T04:19:00.529Z,80.50
2019-01-31T04:21:32.465Z,80.12
2019-01-31T04:24:04.624Z,79.38
2019-01-31T04:26:36.561Z,79.04
2019-01-31T04:29:08.464Z,78.44
2019-01-31T04:31:40.640Z,78.23
2019-01-31T04:34:12.542Z,77.95
2019-01-31T04:36:44.377Z,78.74
2019-01-31T04:39:16.278Z,78.86
2019-01-31T04:41:48.101Z,78.51
2019-01-31T04:44:20.334Z,78.87
2019-01-31T04:46:52.232Z,79.25
2019-01-31T04:49:24.143Z,79.31
2019-01-31T04:51:55.986Z,78.88
2019-01-31T04:54:27.898Z,78.87
2019-01-31T04:56:59.741Z,78.54
2019-01-31T04:59:31.655Z,78.42
2019-01-31T05:02:03.558Z,78.71
2019-01-31T05:04:35.659Z,79.06
2019-01-31T05:07:08.053Z,79.59
2019-01-31T05:09:39.905Z,79.43
2019-01-31T05:12:11.654Z,79.86
2019-01-31T05:14:43.820Z,80.10
2019-01-31T05:17:15.650Z,80.50
2019-01-31T05:19:47.932Z,80.39
2019-01-31T05:22:19.783Z,80.29
2019-01-31T05:24:51.617Z,80.04
2019-01-31T05:27:23.470Z,79.43
2019-01-31T05:29:55.309Z,79.97
2019-01-31T05:32:27.359Z,80.68
2019-01-31T05:34:59.364Z,80.46
2019-01-31T05:37:31.866Z,80.29
2019-01-31T05:40:03.774Z,80.64
2019-01-31T05:42:35.718Z,80.63
2019-01-31T05:45:11.048Z,80.32
2019-01-31T05:47:42.949Z,80.54
2019-01-31T05:50:17.245Z,80.37
2019-01-31T05:52:51.258Z,79.90
2019-01-31T05:55:23.215Z,80.42
2019-01-31T05:57:55.051Z,80.21
2019-01-31T06:00:29.719Z,80.13
2019-01-31T06:03:01.649Z,79.99
2019-01-31T06:05:33.636Z,79.75
2019-01-31T06:08:05.781Z,79.89
2019-01-31T06:10:37.744Z,80.25
2019-01-31T06:13:09.646Z,79.68
2019-01-31T06:15:41.495Z,79.94
2019-01-31T06:18:13.417Z,79.75
2019-01-31T06:20:45.334Z,79.67
2019-01-31T06:23:17.169Z,79.89
2019-01-31T06:25:49.082Z,79.64
2019-01-31T06:28:20.922Z,79.99
2019-01-31T06:30:52.762Z,79.72
2019-01-31T06:33:24.591Z,79.94
2019-01-31T06:35:56.369Z,79.40
2019-01-31T06:38:28.132Z,79.52
2019-01-31T06:41:00.066Z,79.33
2019-01-31T06:43:32.946Z,79.47
2019-01-31T06:46:04.868Z,79.43
2019-01-31T06:48:36.781Z,79.42
2019-01-31T06:51:08.921Z,79.78
2019-01-31T06:53:41.007Z,79.51
2019-01-31T06:56:12.938Z,79.25
2019-01-31T06:58:45.041Z,79.14
2019-01-31T07:01:16.955Z,78.98
2019-01-31T07:03:48.837Z,79.03
2019-01-31T07:06:20.601Z,79.02
2019-01-31T07:08:52.542Z,78.43
2019-01-31T07:11:30.124Z,78.29
2019-01-31T07:13:58.040Z,77.97
2019-01-31T07:16:29.918Z,77.68
2019-01-31T07:19:01.904Z,77.49
2019-01-31T07:21:33.939Z,77.64
2019-01-31T07:24:06.021Z,79.16
2019-01-31T07:26:38.018Z,78.27
2019-01-31T07:29:10.052Z,78.64
2019-01-31T07:31:42.052Z,78.08
2019-01-31T07:34:13.970Z,78.59
2019-01-31T07:36:46.196Z,79.14
2019-01-31T07:39:18.059Z,79.51
2019-01-31T07:41:49.975Z,79.71
2019-01-31T07:44:22.025Z,79.77
2019-01-31T07:46:54.109Z,79.63
2019-01-31T07:49:26.039Z,79.44
2019-01-31T07:51:58.747Z,78.29
2019-01-31T07:54:30.848Z,78.63
2019-01-31T07:57:02.853Z,78.64
2019-01-31T07:59:35.035Z,78.51
2019-01-31T08:02:07.034Z,78.03
2019-01-31T08:04:39.010Z,77.78
2019-01-31T08:07:11.648Z,77.77
2019-01-31T08:09:43.504Z,78.39
2019-01-31T08:12:15.341Z,79.14
2019-01-31T08:14:47.242Z,78.58
2019-01-31T08:17:19.991Z,78.54
2019-01-31T08:19:51.898Z,78.61
2019-01-31T08:22:23.890Z,77.97
2019-01-31T08:24:55.794Z,77.60
2019-01-31T08:27:27.711Z,77.39
2019-01-31T08:29:59.655Z,76.80
2019-01-31T08:32:31.599Z,77.12
2019-01-31T08:35:04.714Z,77.02
2019-01-31T08:37:36.616Z,76.97
2019-01-31T08:40:09.430Z,76.70
2019-01-31T08:42:41.782Z,75.63
2019-01-31T08:45:13.951Z,73.01
2019-01-31T08:47:45.912Z,72.73
2019-01-31T08:50:20.645Z,72.50
2019-01-31T08:52:52.634Z,73.66
2019-01-31T08:55:24.608Z,73.33
2019-01-31T08:57:56.802Z,73.71
2019-01-31T09:00:30.473Z,73.56
2019-01-31T09:03:02.463Z,73.97
2019-01-31T09:05:34.375Z,74.54
2019-01-31T09:08:06.525Z,74.86
2019-01-31T09:10:40.141Z,76.78
2019-01-31T09:13:13.209Z,76.38
2019-01-31T09:15:45.049Z,76.38
2019-01-31T09:18:16.893Z,76.55
2019-01-31T09:21:04.730Z,76.06
2019-01-31T09:24:20.306Z,75.99
2019-01-31T09:27:30.859Z,75.45
2019-01-31T09:30:53.136Z,75.61
2019-01-31T09:34:33.104Z,74.65
2019-01-31T09:38:07.849Z,74.23
2019-01-31T09:41:09.223Z,74.70
2019-01-31T09:44:26.884Z,73.54
2019-01-31T09:48:00.346Z,73.41
2019-01-31T09:50:52.378Z,71.91
2019-01-31T09:54:10.042Z,69.01
2019-01-31T09:57:38.941Z,69.83
2019-01-31T10:01:17.786Z,67.81
2019-01-31T10:04:16.772Z,68.35
2019-01-31T10:07:44.869Z,66.48
2019-01-31T10:11:05.010Z,66.28
2019-01-31T10:14:22.771Z,66.30
2019-01-31T10:17:48.954Z,65.63
2019-01-31T10:21:05.837Z,66.32
2019-01-31T10:24:10.012Z,65.73
2019-01-31T10:27:52.092Z,65.59
2019-01-31T10:31:13.489Z,66.75
2019-01-31T10:34:59.332Z,66.48
2019-01-31T10:38:30.254Z,66.18
2019-01-31T10:41:49.932Z,67.02
2019-01-31T10:45:00.415Z,65.67
2019-01-31T10:48:44.251Z,64.49
2019-01-31T10:51:52.596Z,66.31
2019-01-31T10:55:31.680Z,65.47
2019-01-31T10:58:55.374Z,65.29
2019-01-31T11:02:16.492Z,63.78
2019-01-31T11:05:38.414Z,64.07
2019-01-31T11:08:54.317Z,63.74
2019-01-31T11:11:42.866Z,63.23
2019-01-31T11:14:57.248Z,64.15
2019-01-31T11:18:02.343Z,63.40
2019-01-31T11:21:21.639Z,63.11
2019-01-31T11:24:54.935Z,62.95
2019-01-31T11:28:37.071Z,63.35
2019-01-31T11:31:40.118Z,62.70
2019-01-31T11:35:30.151Z,63.99
2019-01-31T11:38:54.446Z,64.26
2019-01-31T11:41:42.309Z,64.59
2019-01-31T11:45:37.876Z,64.40
2019-01-31T11:49:18.436Z,64.62
2019-01-31T11:52:52.928Z,65.72
2019-01-31T11:56:45.048Z,67.81
2019-01-31T11:59:17.065Z,71.82
2019-01-31T12:01:48.951Z,72.40
2019-01-31T12:04:20.922Z,72.92
2019-01-31T12:06:52.920Z,73.07
2019-01-31T12:09:24.933Z,73.33
2019-01-31T12:11:56.839Z,73.21
2019-01-31T12:14:28.846Z,73.10
2019-01-31T12:17:00.765Z,72.95
2019-01-31T12:19:32.668Z,73.77
2019-01-31T12:22:04.659Z,73.97
2019-01-31T12:24:36.906Z,74.82
2019-01-31T12:27:08.922Z,74.66
2019-01-31T12:29:40.904Z,74.00
2019-01-31T12:32:12.937Z,74.27
2019-01-31T12:34:44.932Z,73.75
2019-01-31T12:37:16.851Z,74.07
2019-01-31T12:39:48.753Z,73.71
2019-01-31T12:42:21.729Z,73.94
2019-01-31T12:44:53.638Z,74.31
2019-01-31T12:47:25.745Z,73.87
2019-01-31T12:49:57.902Z,74.53
2019-01-31T12:52:29.820Z,74.32
2019-01-31T12:55:01.767Z,74.55
2019-01-31T12:57:34.748Z,74.55
2019-01-31T13:00:14.377Z,74.65
2019-01-31T13:02:46.299Z,74.57
2019-01-31T13:05:18.322Z,74.51
2019-01-31T13:07:50.241Z,74.24
2019-01-31T13:10:22.485Z,73.85
2019-01-31T13:12:55.981Z,74.71
2019-01-31T13:15:29.489Z,73.92
2019-01-31T13:18:01.543Z,74.11
2019-01-31T13:20:33.784Z,72.42
2019-01-31T13:23:05.909Z,72.78
2019-01-31T13:25:37.806Z,73.30
2019-01-31T13:28:11.935Z,71.17
2019-01-31T13:30:43.860Z,69.36
2019-01-31T13:33:15.774Z,68.56
2019-01-31T13:35:47.670Z,68.98
2019-01-31T13:38:19.580Z,67.46
2019-01-31T13:40:51.481Z,64.53
2019-01-31T13:43:23.394Z,63.10
2019-01-31T13:45:55.574Z,61.61
2019-01-31T13:48:27.490Z,59.28
2019-01-31T13:50:59.484Z,59.03
2019-01-31T13:53:31.466Z,58.57
2019-01-31T13:56:05.462Z,59.15
2019-01-31T13:58:37.448Z,58.03
2019-01-31T14:01:09.824Z,56.75
2019-01-31T14:03:41.837Z,58.60
2019-01-31T14:06:14.002Z,58.58
2019-01-31T14:08:45.921Z,59.18
2019-01-31T14:11:17.855Z,59.33
2019-01-31T14:13:49.856Z,58.87
2019-01-31T14:16:21.756Z,59.07
2019-01-31T14:18:53.597Z,59.87
2019-01-31T14:21:25.522Z,57.61
2019-01-31T14:23:57.722Z,57.42
2019-01-31T14:26:29.643Z,55.88
2019-01-31T14:29:01.552Z,55.46
2019-01-31T14:31:33.371Z,57.35
2019-01-31T14:34:05.688Z,58.44
2019-01-31T14:36:37.586Z,60.12
2019-01-31T14:39:10.901Z,60.84
2019-01-31T14:41:42.727Z,62.34
2019-01-31T14:44:20.511Z,62.96
2019-01-31T14:46:48.491Z,63.40
2019-01-31T14:49:20.398Z,62.95
2019-01-31T14:51:52.642Z,64.21
2019-01-31T14:54:24.474Z,62.11
2019-01-31T14:56:56.381Z,59.94
2019-01-31T14:59:28.226Z,58.74
2019-01-31T15:02:00.065Z,57.66
2019-01-31T15:04:31.980Z,59.49
2019-01-31T15:07:03.954Z,59.69
2019-01-31T15:09:36.155Z,60.51
2019-01-31T15:12:08.136Z,62.05
2019-01-31T15:14:40.303Z,62.52
2019-01-31T15:17:12.195Z,63.21
2019-01-31T15:19:44.119Z,63.01
2019-01-31T15:22:15.950Z,63.83
2019-01-31T15:24:47.861Z,63.86
2019-01-31T15:27:19.760Z,64.60
2019-01-31T15:29:51.671Z,64.92
2019-01-31T15:32:24.021Z,65.26
2019-01-31T15:34:55.867Z,66.37
2019-01-31T15:37:27.791Z,66.93
2019-01-31T15:39:59.724Z,66.46
2019-01-31T15:42:31.618Z,67.30
2019-01-31T15:45:03.545Z,67.79
2019-01-31T15:47:35.711Z,69.22
2019-01-31T15:50:09.700Z,69.39
2019-01-31T15:52:41.625Z,70.72
2019-01-31T15:55:16.238Z,70.69
2019-01-31T15:57:48.150Z,71.04
2019-01-31T16:00:36.673Z,71.23
2019-01-31T16:03:11.137Z,71.32
2019-01-31T16:05:43.414Z,70.99
2019-01-31T16:08:15.690Z,70.99
2019-01-31T16:10:48.065Z,70.92
2019-01-31T16:13:20.273Z,71.16
2019-01-31T16:15:52.759Z,71.10
2019-01-31T16:18:24.809Z,71.68
2019-01-31T16:20:56.934Z,71.89
2019-01-31T16:23:28.957Z,71.84
2019-01-31T16:26:01.326Z,71.75
2019-01-31T16:28:33.333Z,72.01
2019-01-31T16:31:05.959Z,72.19
2019-01-31T16:33:38.046Z,72.24
2019-01-31T16:36:10.494Z,72.69
2019-01-31T16:38:44.041Z,73.12
2019-01-31T16:41:17.443Z,73.29
2019-01-31T16:43:49.623Z,73.35
2019-01-31T16:46:21.836Z,73.05
2019-01-31T16:48:53.828Z,72.40
2019-01-31T16:51:26.118Z,71.80
2019-01-31T16:53:58.595Z,72.56
2019-01-31T16:56:30.707Z,73.08
2019-01-31T16:59:03.132Z,73.20
2019-01-31T17:01:35.136Z,73.37
2019-01-31T17:04:07.922Z,73.39
2019-01-31T17:06:39.867Z,73.63
2019-01-31T17:09:31.213Z,74.00
2019-01-31T17:12:03.071Z,74.38
2019-01-31T17:14:35.332Z,74.47
2019-01-31T17:17:07.780Z,74.16
2019-01-31T17:19:39.856Z,74.17
2019-01-31T17:22:21.345Z,74.49
2019-01-31T17:25:00.652Z,74.70
2019-01-31T17:27:33.057Z,74.58
2019-01-31T17:30:08.075Z,74.39
2019-01-31T17:32:40.054Z,74.28
2019-01-31T17:35:12.226Z,74.36
2019-01-31T17:37:45.501Z,74.60
2019-01-31T17:40:24.714Z,74.55
2019-01-31T17:42:56.819Z,74.31
2019-01-31T17:45:31.036Z,74.45
2019-01-31T17:48:04.424Z,74.26
2019-01-31T17:50:38.389Z,74.63
2019-01-31T17:53:10.856Z,75.02
2019-01-31T17:55:43.254Z,74.74
2019-01-31T17:58:17.141Z,75.13
2019-01-31T18:00:52.404Z,75.32
2019-01-31T18:03:24.800Z,75.69
2019-01-31T18:05:57.777Z,75.27
2019-01-31T18:08:31.760Z,75.52
2019-01-31T18:11:04.068Z,75.06
2019-01-31T18:13:38.805Z,74.82
2019-01-31T18:16:12.739Z,74.61
2019-01-31T18:18:47.289Z,73.81
2019-01-31T18:21:20.404Z,73.33
2019-01-31T18:23:53.738Z,73.35
2019-01-31T18:26:27.787Z,73.04
2019-01-31T18:29:01.883Z,73.17
2019-01-31T18:31:36.240Z,72.40
2019-01-31T18:34:09.324Z,72.57
2019-01-31T18:36:41.557Z,73.06
2019-01-31T18:39:15.181Z,73.33
2019-01-31T18:41:50.250Z,72.97
2019-01-31T18:44:25.238Z,73.42
2019-01-31T18:47:01.887Z,73.05
2019-01-31T18:49:37.208Z,72.96
2019-01-31T18:52:12.137Z,72.93
2019-01-31T18:54:47.474Z,72.99
2019-01-31T18:57:22.965Z,73.07
2019-01-31T18:59:58.439Z,72.97
2019-01-31T19:02:33.507Z,73.46
2019-01-31T19:05:08.735Z,73.01
2019-01-31T19:07:44.456Z,72.87
2019-01-31T19:10:19.543Z,72.64
2019-01-31T19:12:55.068Z,72.74
2019-01-31T19:15:29.014Z,73.15
2019-01-31T19:18:06.055Z,73.76
2019-01-31T19:20:40.573Z,73.95
2019-01-31T19:23:18.461Z,73.81
2019-01-31T19:25:53.470Z,73.14
2019-01-31T19:28:28.801Z,73.10
2019-01-31T19:31:04.370Z,73.04
2019-01-31T19:33:40.235Z,73.60
2019-01-31T19:36:16.394Z,74.10
2019-01-31T19:38:53.356Z,73.80
2019-01-31T19:41:30.324Z,74.08
2019-01-31T19:44:05.626Z,73.92
2019-01-31T19:46:42.271Z,74.28
2019-01-31T19:49:17.979Z,74.02
2019-01-31T19:51:53.936Z,73.69
2019-01-31T19:54:30.193Z,73.80
2019-01-31T19:57:06.105Z,73.11
2019-01-31T19:59:43.385Z,73.04
2019-01-31T20:02:20.437Z,73.23
2019-01-31T20:04:56.190Z,73.20
2019-01-31T20:07:32.948Z,73.07
2019-01-31T20:10:11.010Z,73.01
2019-01-31T20:12:48.744Z,73.32
2019-01-31T20:15:24.955Z,73.72
2019-01-31T20:18:00.190Z,73.76
2019-01-31T20:20:37.049Z,73.25
2019-01-31T20:23:13.580Z,73.18
2019-01-31T20:25:49.891Z,72.67
2019-01-31T20:28:26.477Z,72.81
2019-01-31T20:31:02.433Z,72.82
2019-01-31T20:33:38.061Z,73.09
2019-01-31T20:36:17.571Z,73.08
2019-01-31T20:38:53.709Z,73.49
2019-01-31T20:41:30.309Z,73.23
2019-01-31T20:44:06.118Z,72.62
2019-01-31T20:46:43.918Z,72.32
2019-01-31T20:49:19.855Z,72.21
2019-01-31T20:51:55.713Z,72.06
2019-01-31T20:54:33.116Z,72.13
2019-01-31T20:57:11.170Z,72.20
2019-01-31T20:59:47.802Z,72.22
2019-01-31T21:02:24.542Z,71.95
2019-01-31T21:05:00.972Z,72.46
2019-01-31T21:07:37.676Z,72.44
2019-01-31T21:10:15.154Z,72.33
2019-01-31T21:12:51.432Z,72.27
2019-01-31T21:15:27.399Z,71.86
2019-01-31T21:18:02.573Z,72.34
2019-01-31T21:20:39.351Z,72.47
2019-01-31T21:23:14.882Z,71.88
2019-01-31T21:25:49.816Z,71.86
2019-01-31T21:28:25.132Z,71.02
2019-01-31T21:31:00.079Z,70.88
2019-01-31T21:33:34.315Z,71.04
2019-01-31T21:36:08.342Z,71.67
2019-01-31T21:38:41.810Z,72.18
2019-01-31T21:41:14.939Z,71.23
2019-01-31T21:43:48.240Z,71.42
2019-01-31T21:46:20.942Z,71.31
2019-01-31T21:48:53.141Z,71.44
2019-01-31T21:51:25.795Z,70.60
2019-01-31T21:53:58.320Z,70.60
2019-01-31T21:56:32.568Z,71.32
2019-01-31T21:59:04.712Z,70.64
2019-01-31T22:01:36.911Z,70.57
2019-01-31T22:04:08.918Z,70.33
2019-01-31T22:06:40.952Z,70.12
2019-01-31T22:09:13.178Z,70.31
2019-01-31T22:11:45.654Z,70.53
2019-01-31T22:14:17.725Z,70.24
2019-01-31T22:16:49.881Z,70.10
2019-01-31T22:19:22.009Z,69.67
2019-01-31T22:21:54.053Z,69.78
2019-01-31T22:24:25.974Z,69.71
2019-01-31T22:26:58.200Z,69.45
2019-01-31T22:29:30.273Z,69.46
2019-01-31T22:32:02.585Z,69.21
2019-01-31T22:34:34.565Z,69.19
2019-01-31T22:37:06.578Z,69.21
2019-01-31T22:39:38.498Z,69.38
2019-01-31T22:42:11.586Z,69.02
2019-01-31T22:44:43.615Z,68.66
2019-01-31T22:47:25.469Z,68.69
2019-01-31T22:49:49.067Z,68.49
2019-01-31T22:52:20.976Z,68.56
2019-01-31T22:54:52.915Z,68.24
2019-01-31T22:57:24.844Z,68.34
2019-01-31T22:59:56.763Z,68.07
2019-01-31T23:02:28.692Z,68.38
2019-01-31T23:05:00.665Z,68.11
2019-01-31T23:07:32.585Z,68.09
2019-01-31T23:10:05.596Z,67.89
2019-01-31T23:12:37.512Z,67.90
2019-01-31T23:15:09.772Z,67.13
2019-01-31T23:17:41.949Z,67.29
2019-01-31T23:20:15.959Z,67.14
2019-01-31T23:22:47.868Z,67.62
2019-01-31T23:25:19.878Z,68.78
2019-01-31T23:27:51.789Z,68.49
2019-01-31T23:30:23.723Z,68.25
2019-01-31T23:32:55.652Z,68.40
2019-01-31T23:35:27.578Z,68.45
2019-01-31T23:37:59.843Z,68.61
2019-01-31T23:40:31.822Z,67.60
2019-01-31T23:43:03.907Z,67.11
2019-01-31T23:45:35.892Z,66.95
2019-01-31T23:48:08.132Z,66.95
2019-01-31T23:50:40.067Z,67.98
2019-01-31T23:53:12.324Z,67.62
2019-01-31T23:55:44.196Z,67.58
2019-01-31T23:58:16.104Z,67.25
